Time;durP1;ratioP1;P1;durP2;ratioP2;P2;SDS_P1;SDS_P2;PMS_P1;PMS_P2;Temp;Humidity;BMP_temperature;BMP_pressure;BME280_temperature;BME280_humidity;BME280_pressure;Samples;Min_cycle;Max_cycle;Signal;HPM_P1;HPM_P2
2024/01/26 00:01:44;;;;;;;;;;;;;;;5.35;100.00;100681.81;4879689;29;19955;-78
2024/01/26 00:04:10;;;;;;;;;;;;;;;5.39;100.00;100687.91;4880139;29;19919;-79
2024/01/26 00:06:35;;;;;;;;;;;;;;;5.39;100.00;100683.56;4897304;29;19951;-78
2024/01/26 00:09:07;;;;;;;;;;;;;;;5.37;100.00;100681.81;4896930;29;19930;-79
2024/01/26 00:11:32;;;;;;;;;;;;;;;5.36;100.00;100685.31;4895375;29;19994;-78
2024/01/26 00:13:57;;;;;;;;;;;;;;;5.39;100.00;100682.66;4897167;29;20434;-80
2024/01/26 00:16:23;;;;;;;;;;;;;;;5.38;100.00;100681.81;4896584;29;20014;-80
2024/01/26 00:18:48;;;;;;;;;;;;;;;5.37;100.00;100671.28;4896328;29;19974;-83
2024/01/26 00:21:13;;;;;;;;;;;;;;;5.31;100.00;100674.81;4896202;29;19955;-81
2024/01/26 00:23:38;;;;;;;;;;;;;;;5.36;100.00;100678.31;4897064;29;19924;-79
2024/01/26 00:26:04;;;;;;;;;;;;;;;5.33;100.00;100680.06;4895803;29;19919;-83
2024/01/26 00:28:29;;;;;;;;;;;;;;;5.37;100.00;100679.19;4879715;29;19932;-78
2024/01/26 00:30:54;;;;;;;;;;;;;;;5.39;100.00;100677.41;4897149;29;20010;-78
2024/01/26 00:33:19;;;;;;;;;;;;;;;5.37;100.00;100689.69;4872538;29;20002;-81
2024/01/26 00:35:45;;;;;;;;;;;;;;;5.38;100.00;100680.94;4897106;29;19919;-80
2024/01/26 00:38:10;;;;;;;;;;;;;;;5.39;100.00;100669.53;4895955;29;19971;-80
2024/01/26 00:40:35;;;;;;;;;;;;;;;5.33;100.00;100677.44;4894680;29;19931;-79
2024/01/26 00:43:00;;;;;;;;;;;;;;;5.37;100.00;100668.66;4887079;29;20399;-79
2024/01/26 00:45:26;;;;;;;;;;;;;;;5.39;100.00;100662.53;4880102;29;20398;-80
2024/01/26 00:47:51;;;;;;;;;;;;;;;5.35;100.00;100650.28;4896810;29;20387;-79
2024/01/26 00:50:16;;;;;;;;;;;;;;;5.37;100.00;100647.66;4897050;29;20310;-80
2024/01/26 00:52:41;;;;;;;;;;;;;;;5.41;100.00;100644.13;4896899;29;20340;-78
2024/01/26 06:12:41;;;;;;;;;;;;;;;5.57;100.00;100580.00;5398927;23;19958;-78
2024/01/26 06:15:08;;;;;;;;;;;;;;;5.54;100.00;100574.78;4927917;29;19923;-79
2024/01/26 06:17:34;;;;;;;;;;;;;;;5.54;100.00;100590.53;4928518;29;20294;-76
2024/01/26 06:19:59;;;;;;;;;;;;;;;5.55;100.00;100584.41;4928419;29;19919;-79
2024/01/26 06:22:25;;;;;;;;;;;;;;;5.60;100.00;100587.84;4927961;29;19923;-79
2024/01/26 06:24:50;;;;;;;;;;;;;;;5.61;100.00;100593.97;4927172;29;19926;-79
2024/01/26 06:27:15;;;;;;;;;;;;;;;5.55;100.00;100587.03;4926227;29;19919;-78
2024/01/26 06:29:40;;;;;;;;;;;;;;;5.50;100.00;100573.03;4928031;29;19994;-78
2024/01/26 06:32:06;;;;;;;;;;;;;;;5.57;100.00;100556.34;4927725;29;20386;-79
2024/01/26 06:34:33;;;;;;;;;;;;;;;5.54;100.00;100566.88;4909397;29;20411;-78
2024/01/26 06:36:59;;;;;;;;;;;;;;;5.54;100.00;100572.13;4927619;29;19919;-78
2024/01/26 06:39:24;;;;;;;;;;;;;;;5.55;100.00;100600.19;4926934;29;20014;-78
2024/01/26 06:41:49;;;;;;;;;;;;;;;5.56;100.00;100590.53;4926145;29;20342;-78
2024/01/26 06:44:14;;;;;;;;;;;;;;;5.54;100.00;100606.31;4928018;29;19927;-79
2024/01/26 06:46:40;;;;;;;;;;;;;;;5.54;100.00;100606.31;4927686;29;19930;-78
2024/01/26 06:49:05;;;;;;;;;;;;;;;5.56;100.00;100590.53;4927656;29;20354;-78
2024/01/26 06:51:30;;;;;;;;;;;;;;;5.56;100.00;100593.16;4927282;29;19930;-78
2024/01/26 06:53:56;;;;;;;;;;;;;;;5.54;100.00;100601.06;4927125;29;19923;-78
2024/01/26 06:56:21;;;;;;;;;;;;;;;5.59;100.00;100596.63;4926438;29;19919;-78
2024/01/26 06:58:47;;;;;;;;;;;;;;;5.62;100.00;100601.84;4927589;29;19923;-79
2024/01/26 07:01:12;;;;;;;;;;;;;;;5.59;100.00;100606.28;4926936;29;19919;-80
2024/01/26 07:03:37;;;;;;;;;;;;;;;5.62;100.00;100612.38;4926959;29;19923;-80
2024/01/26 07:06:03;;;;;;;;;;;;;;;5.64;100.00;100607.97;4925956;29;19919;-77
2024/01/26 07:08:28;;;;;;;;;;;;;;;5.63;100.00;100603.59;4917374;29;20040;-78
2024/01/26 07:10:53;;;;;;;;;;;;;;;5.55;100.00;100604.56;4927271;29;19960;-78
2024/01/26 07:13:19;;;;;;;;;;;;;;;5.58;100.00;100605.38;4925505;29;19923;-80
2024/01/26 07:15:44;;;;;;;;;;;;;;;5.56;100.00;100599.28;4926549;29;19970;-79
2024/01/26 07:18:09;;;;;;;;;;;;;;;5.58;100.00;100600.13;4926671;29;19925;-79
2024/01/26 07:20:34;;;;;;;;;;;;;;;5.60;100.00;100598.38;4926888;29;19919;-81
2024/01/26 07:22:59;;;;;;;;;;;;;;;5.63;100.00;100606.25;4909198;29;19926;-79
2024/01/26 07:25:25;;;;;;;;;;;;;;;5.59;100.00;100601.88;4926199;29;19970;-78
2024/01/26 07:27:50;;;;;;;;;;;;;;;5.61;100.00;100589.59;4925106;29;20268;-78
2024/01/26 07:30:17;;;;;;;;;;;;;;;5.61;100.00;100581.69;4925693;29;19919;-80
2024/01/26 07:32:42;;;;;;;;;;;;;;;5.63;100.00;100572.06;4926460;29;19919;-78
2024/01/26 07:35:08;;;;;;;;;;;;;;;5.69;100.00;100563.22;4926456;29;19923;-78
2024/01/26 07:37:33;;;;;;;;;;;;;;;5.66;100.00;100575.53;4926207;29;20048;-78
2024/01/26 07:40:00;;;;;;;;;;;;;;;5.63;100.00;100574.69;4926546;29;19922;-79
2024/01/26 07:42:26;;;;;;;;;;;;;;;5.58;100.00;100568.56;4924628;29;20509;-77
2024/01/26 07:44:51;;;;;;;;;;;;;;;5.63;100.00;100573.78;4926235;29;19945;-78
2024/01/26 07:47:16;;;;;;;;;;;;;;;5.64;100.00;100579.03;4926636;29;20404;-78
2024/01/26 07:49:41;;;;;;;;;;;;;;;5.71;100.00;100564.09;4926047;29;19919;-78
2024/01/26 07:52:07;;;;;;;;;;;;;;;5.63;100.00;100556.28;4925773;29;19920;-78
2024/01/26 09:03:33;;;;;;;;;;;;;;;5.78;100.00;100543.84;4897320;29;19937;-83
2024/01/26 09:05:59;;;;;;;;;;;;;;;5.74;100.00;100536.88;4900609;29;19923;-80
2024/01/26 09:08:24;;;;;;;;;;;;;;;5.74;100.00;100536.88;4900903;29;20427;-83
2024/01/26 09:10:49;;;;;;;;;;;;;;;5.72;100.00;100539.50;4900514;29;20426;-77
2024/01/26 09:13:15;;;;;;;;;;;;;;;5.77;100.00;100537.69;4900678;29;20013;-79
2024/01/26 09:15:41;;;;;;;;;;;;;;;5.75;100.00;100533.38;4899027;29;19920;-79
2024/01/26 09:18:06;;;;;;;;;;;;;;;5.80;100.00;100542.94;4883390;29;19920;-77
2024/01/26 09:20:31;;;;;;;;;;;;;;;5.86;100.00;100546.41;4900448;29;19927;-78
2024/01/26 09:22:56;;;;;;;;;;;;;;;5.77;100.00;100542.97;4900269;29;19927;-80
2024/01/26 09:25:22;;;;;;;;;;;;;;;5.80;100.00;100558.72;4900311;29;19974;-80
2024/01/26 09:27:47;;;;;;;;;;;;;;;5.77;100.00;100552.63;4900154;29;19923;-78
2024/01/26 09:30:13;;;;;;;;;;;;;;;5.80;100.00;100552.59;4899447;29;20018;-80
2024/01/26 09:32:38;;;;;;;;;;;;;;;5.82;100.00;100542.91;4882588;29;20011;-80
2024/01/26 09:35:04;;;;;;;;;;;;;;;5.82;100.00;100548.16;4900211;29;19919;-81
2024/01/26 09:37:29;;;;;;;;;;;;;;;5.81;100.00;100552.56;4900030;29;19923;-81
2024/01/26 09:39:54;;;;;;;;;;;;;;;5.88;100.00;100561.25;4900006;29;19919;-82
2024/01/26 09:42:20;;;;;;;;;;;;;;;5.86;100.00;100549.03;4898635;29;19958;-81
2024/01/26 09:44:45;;;;;;;;;;;;;;;5.91;100.00;100542.81;4899839;29;20283;-79
2024/01/26 09:47:12;;;;;;;;;;;;;;;5.88;100.00;100550.75;4898419;29;19920;-82
2024/01/26 09:49:42;;;;;;;;;;;;;;;5.80;100.00;100547.31;4899867;29;19920;-80
2024/01/26 09:52:09;;;;;;;;;;;;;;;5.84;100.00;100556.94;4899790;29;20026;-81
2024/01/26 09:54:35;;;;;;;;;;;;;;;5.89;100.00;100563.00;4898809;29;19923;-80
2024/01/26 09:57:01;;;;;;;;;;;;;;;5.86;100.00;100552.53;4882747;29;19982;-80
2024/01/26 09:59:26;;;;;;;;;;;;;;;5.89;100.00;100552.50;4899742;29;20375;-79
2024/01/26 10:01:53;;;;;;;;;;;;;;;5.88;100.00;100550.75;4898033;29;19931;-80
2024/01/26 10:04:18;;;;;;;;;;;;;;;5.90;100.00;100548.09;4899537;29;20379;-81
2024/01/26 10:06:45;;;;;;;;;;;;;;;5.96;100.00;100541.03;4899410;29;19927;-81
2024/01/26 10:09:12;;;;;;;;;;;;;;;5.99;100.00;100545.41;4899567;29;20347;-79
2024/01/26 10:11:37;;;;;;;;;;;;;;;5.94;100.00;100541.91;4898919;29;20331;-81
2024/01/26 10:14:02;;;;;;;;;;;;;;;5.95;100.00;100541.91;4898032;29;20371;-80
2024/01/26 10:16:28;;;;;;;;;;;;;;;5.93;100.00;100542.78;4898007;29;19930;-80
2024/01/26 10:18:53;;;;;;;;;;;;;;;5.90;100.00;100535.81;4899196;29;20382;-83
2024/01/26 10:21:20;;;;;;;;;;;;;;;5.89;100.00;100539.34;4899294;29;20311;-80
2024/01/26 10:23:46;;;;;;;;;;;;;;;5.90;100.00;100542.84;4899006;29;19927;-81
2024/01/26 10:26:12;;;;;;;;;;;;;;;6.02;100.00;100544.50;4899110;29;20332;-80
2024/01/26 10:28:38;;;;;;;;;;;;;;;5.98;100.00;100534.00;4899108;29;19919;-83
2024/01/26 10:31:03;;;;;;;;;;;;;;;5.98;100.00;100547.16;4897817;29;19919;-83
2024/01/26 10:33:29;;;;;;;;;;;;;;;5.95;100.00;100538.38;4899020;29;19919;-81
2024/01/26 10:35:57;;;;;;;;;;;;;;;5.92;100.00;100535.78;4897666;29;19927;-85
2024/01/26 10:38:22;;;;;;;;;;;;;;;5.93;100.00;100542.78;4882170;29;19923;-80
2024/01/26 10:40:48;;;;;;;;;;;;;;;5.91;100.00;100534.06;4898848;29;19994;-79
2024/01/26 10:43:15;;;;;;;;;;;;;;;5.94;100.00;100524.38;4897445;29;19919;-79
2024/01/26 10:45:41;;;;;;;;;;;;;;;5.93;100.00;100521.75;4896778;29;19924;-79
2024/01/26 10:48:09;;;;;;;;;;;;;;;5.97;100.00;100528.75;4898821;29;19927;-80
2024/01/26 10:50:35;;;;;;;;;;;;;;;5.91;100.00;100537.56;4898912;29;19923;-81
2024/01/26 10:53:01;;;;;;;;;;;;;;;5.95;100.00;100534.00;4898811;29;19942;-81
2024/01/26 10:55:28;;;;;;;;;;;;;;;5.98;100.00;100526.13;4898749;29;20366;-79
2024/01/26 10:57:53;;;;;;;;;;;;;;;6.00;100.00;100534.84;4898697;29;19924;-81
2024/01/26 11:00:20;;;;;;;;;;;;;;;6.04;100.00;100540.94;4897711;29;19920;-80
2024/01/26 11:02:45;;;;;;;;;;;;;;;6.01;100.00;100535.72;4898737;29;20549;-79
2024/01/26 11:05:11;;;;;;;;;;;;;;;5.98;100.00;100530.47;4898557;29;20290;-80
2024/01/26 11:07:37;;;;;;;;;;;;;;;5.96;100.00;100532.25;4881290;29;19926;-80
2024/01/26 11:10:04;;;;;;;;;;;;;;;6.03;100.00;100527.81;4898705;29;19923;-81
2024/01/26 11:12:31;;;;;;;;;;;;;;;5.98;100.00;100534.00;4898087;29;20369;-79
2024/01/26 11:15:09;;;;;;;;;;;;;;;5.96;100.00;100522.63;4898197;29;19924;-85
2024/01/26 11:17:41;;;;;;;;;;;;;;;5.94;100.00;100527.00;4896387;29;20481;-79
2024/01/26 11:20:10;;;;;;;;;;;;;;;5.99;100.00;100522.56;4896644;29;19924;-81
2024/01/26 11:22:35;;;;;;;;;;;;;;;5.99;100.00;100517.31;4898265;29;20236;-80
2024/01/26 11:25:01;;;;;;;;;;;;;;;5.96;100.00;100522.63;4897802;29;19926;-81
2024/01/26 11:27:26;;;;;;;;;;;;;;;6.00;100.00;100524.31;4898084;29;20018;-82
2024/01/26 11:29:52;;;;;;;;;;;;;;;6.00;100.00;100519.06;4898026;29;19924;-79
2024/01/26 11:32:18;;;;;;;;;;;;;;;5.98;100.00;100534.00;4896696;29;19939;-83
2024/01/26 11:34:44;;;;;;;;;;;;;;;5.99;100.00;100532.25;4897885;29;20363;-81
2024/01/26 11:37:13;;;;;;;;;;;;;;;6.04;100.00;100532.19;4897847;29;19931;-83
2024/01/26 11:39:39;;;;;;;;;;;;;;;6.00;100.00;100528.72;4897854;29;19924;-80
2024/01/26 11:42:08;;;;;;;;;;;;;;;6.00;100.00;100524.31;4880716;29;19930;-80
2024/01/26 11:44:39;;;;;;;;;;;;;;;5.98;100.00;100523.50;4897058;29;19920;-80
2024/01/26 11:47:08;;;;;;;;;;;;;;;5.96;100.00;100511.19;4879339;29;19950;-79
2024/01/26 11:49:34;;;;;;;;;;;;;;;5.96;100.00;100508.56;4897669;29;19963;-80
2024/01/26 11:52:00;;;;;;;;;;;;;;;6.07;100.00;100504.06;4897480;29;19920;-83
2024/01/26 11:54:25;;;;;;;;;;;;;;;5.99;100.00;100501.53;4897738;29;19920;-81
2024/01/26 11:56:50;;;;;;;;;;;;;;;6.04;100.00;100508.50;4897396;29;19920;-80
2024/01/26 11:59:16;;;;;;;;;;;;;;;6.04;100.00;100501.47;4897837;29;19923;-81
2024/01/26 12:01:41;;;;;;;;;;;;;;;6.02;100.00;100497.13;4874259;29;19982;-83
2024/01/26 12:04:08;;;;;;;;;;;;;;;6.02;100.00;100500.63;4869153;29;20012;-79
2024/01/26 12:06:33;;;;;;;;;;;;;;;6.05;100.00;100502.34;4869345;29;19942;-80
2024/01/26 12:08:59;;;;;;;;;;;;;;;6.12;100.00;100517.16;4869385;29;19920;-80
2024/01/26 12:11:24;;;;;;;;;;;;;;;6.10;100.00;100503.16;4869067;29;19988;-78
2024/01/26 12:13:51;;;;;;;;;;;;;;;6.07;100.00;100505.84;4869043;29;19920;-81
2024/01/26 12:16:20;;;;;;;;;;;;;;;6.07;100.00;100500.56;4867625;29;19930;-80
2024/01/26 12:18:46;;;;;;;;;;;;;;;6.06;100.00;100504.09;4869530;29;19968;-81
2024/01/26 12:21:11;;;;;;;;;;;;;;;6.07;100.00;100497.94;4869175;29;19924;-79
2024/01/26 12:23:36;;;;;;;;;;;;;;;6.05;100.00;100499.69;4867546;29;19927;-80
2024/01/26 12:26:02;;;;;;;;;;;;;;;6.11;100.00;100483.84;4868962;29;19971;-82
2024/01/26 12:28:27;;;;;;;;;;;;;;;6.01;100.00;100488.34;4883757;29;19927;-90
2024/01/26 12:30:53;;;;;;;;;;;;;;;6.09;100.00;100502.28;4867907;29;19920;-81
2024/01/26 12:33:20;;;;;;;;;;;;;;;6.13;100.00;100505.75;4868858;29;20336;-81
2024/01/26 12:35:46;;;;;;;;;;;;;;;6.08;100.00;100508.44;4867399;29;19924;-81
2024/01/26 12:38:13;;;;;;;;;;;;;;;6.08;100.00;100513.72;4867245;29;20038;-81
2024/01/26 12:40:38;;;;;;;;;;;;;;;6.03;100.00;100506.75;4869380;29;19943;-81
2024/01/26 12:43:04;;;;;;;;;;;;;;;6.01;100.00;100512.03;4868927;29;20376;-82
2024/01/26 12:45:30;;;;;;;;;;;;;;;6.07;100.00;100524.25;4867454;29;19996;-81
2024/01/26 12:47:55;;;;;;;;;;;;;;;6.08;100.00;100525.97;4868871;29;19920;-84
2024/01/26 12:50:21;;;;;;;;;;;;;;;6.06;100.00;100517.25;4868650;29;19932;-81
2024/01/26 12:52:46;;;;;;;;;;;;;;;6.03;100.00;100512.91;4868803;29;20300;-81
2024/01/26 12:55:12;;;;;;;;;;;;;;;6.00;100.00;100508.53;4868957;29;19979;-81
2024/01/26 12:57:37;;;;;;;;;;;;;;;6.03;100.00;100509.38;4868755;29;19921;-80
2024/01/26 13:00:03;;;;;;;;;;;;;;;6.07;100.00;100508.47;4868774;29;19968;-79
2024/01/26 13:02:28;;;;;;;;;;;;;;;6.08;100.00;100505.81;4881745;29;19924;-81
2024/01/26 13:04:53;;;;;;;;;;;;;;;6.10;100.00;100516.31;4879216;29;19950;-80
2024/01/26 13:07:20;;;;;;;;;;;;;;;6.09;100.00;100522.47;4896663;29;20287;-80
2024/01/26 13:09:45;;;;;;;;;;;;;;;6.10;100.00;100529.47;4896574;29;19924;-80
2024/01/26 13:12:10;;;;;;;;;;;;;;;6.16;100.00;100539.94;4896482;29;19956;-81
2024/01/26 13:14:36;;;;;;;;;;;;;;;6.15;100.00;100538.19;4896516;29;19919;-81
2024/01/26 13:17:01;;;;;;;;;;;;;;;6.16;100.00;100532.03;4895239;29;20372;-81
2024/01/26 13:19:26;;;;;;;;;;;;;;;6.15;100.00;100522.41;4896504;29;19925;-81
2024/01/26 13:21:52;;;;;;;;;;;;;;;6.14;100.00;100525.91;4896598;29;19930;-80
2024/01/26 13:24:17;;;;;;;;;;;;;;;6.09;100.00;100519.84;4896178;29;19978;-79
2024/01/26 13:26:44;;;;;;;;;;;;;;;6.13;100.00;100529.44;4896608;29;19924;-79
2024/01/26 13:29:09;;;;;;;;;;;;;;;6.12;100.00;100532.97;4896241;29;20371;-80
2024/01/26 13:31:35;;;;;;;;;;;;;;;6.08;100.00;100541.75;4895284;29;19925;-81
2024/01/26 13:34:00;;;;;;;;;;;;;;;6.10;100.00;100542.63;4896634;29;19970;-83
2024/01/26 13:36:25;;;;;;;;;;;;;;;6.09;100.00;100560.16;4879141;29;19920;-80
2024/01/26 13:38:50;;;;;;;;;;;;;;;6.05;100.00;100550.59;4896242;29;20023;-80
2024/01/26 13:41:16;;;;;;;;;;;;;;;6.11;100.00;100552.25;4894778;29;19919;-81
2024/01/26 13:43:43;;;;;;;;;;;;;;;6.07;100.00;100561.94;4896623;29;20380;-81
2024/01/26 13:46:09;;;;;;;;;;;;;;;6.10;100.00;100576.84;4894919;29;19924;-81
2024/01/26 13:48:34;;;;;;;;;;;;;;;6.17;100.00;100583.75;4898422;29;20022;-81
2024/01/26 13:51:00;;;;;;;;;;;;;;;6.09;100.00;100586.47;4899795;29;19927;-80
2024/01/26 13:53:25;;;;;;;;;;;;;;;6.05;100.00;100595.31;4899762;29;19978;-80
2024/01/26 13:55:50;;;;;;;;;;;;;;;6.15;100.00;100604.81;4899870;29;20256;-80
2024/01/26 13:58:16;;;;;;;;;;;;;;;6.23;100.00;100625.81;4899700;29;19986;-79
2024/01/26 14:00:42;;;;;;;;;;;;;;;6.21;100.00;100622.31;4898421;29;20320;-79
2024/01/26 14:03:07;;;;;;;;;;;;;;;6.17;100.00;100623.22;4899226;29;20019;-80
2024/01/26 14:05:34;;;;;;;;;;;;;;;6.15;100.00;100619.75;4882310;29;19920;-80
2024/01/26 14:08:00;;;;;;;;;;;;;;;6.12;100.00;100617.16;4899318;29;20299;-83
2024/01/26 14:10:25;;;;;;;;;;;;;;;6.09;100.00;100628.56;4882224;29;19919;-82
2024/01/26 14:12:50;;;;;;;;;;;;;;;6.05;100.00;100631.25;4899454;29;20327;-80
2024/01/26 14:15:16;;;;;;;;;;;;;;;6.02;100.00;100619.03;4899326;29;19923;-79
2024/01/26 14:17:42;;;;;;;;;;;;;;;6.04;100.00;100624.28;4898170;29;19926;-81
2024/01/26 14:20:07;;;;;;;;;;;;;;;6.31;100.00;100636.25;4899357;29;20407;-81
2024/01/26 14:22:33;;;;;;;;;;;;;;;6.14;100.00;100631.16;4899265;29;19919;-81
2024/01/26 14:24:58;;;;;;;;;;;;;;;6.13;100.00;100643.47;4899169;29;20026;-82
2024/01/26 14:27:23;;;;;;;;;;;;;;;6.09;100.00;100648.75;4897562;29;20384;-83
2024/01/26 14:29:49;;;;;;;;;;;;;;;6.03;100.00;100659.34;4899008;29;19927;-79
2024/01/26 14:32:14;;;;;;;;;;;;;;;6.08;100.00;100652.28;4897714;29;19930;-83
2024/01/26 14:34:39;;;;;;;;;;;;;;;5.96;100.00;100669.03;4898916;29;20002;-80
2024/01/26 14:37:04;;;;;;;;;;;;;;;5.94;100.00;100671.69;4898782;29;19967;-80
2024/01/26 14:39:30;;;;;;;;;;;;;;;5.98;100.00;100683.97;4898916;29;19930;-83
2024/01/26 14:41:55;;;;;;;;;;;;;;;6.20;100.00;100694.25;4898887;29;19920;-83
2024/01/26 14:44:20;;;;;;;;;;;;;;;6.49;100.00;100690.44;4898856;29;19985;-80
2024/01/26 14:46:46;;;;;;;;;;;;;;;6.31;100.00;100697.66;4897597;29;20367;-77
2024/01/26 14:49:12;;;;;;;;;;;;;;;6.18;100.00;100703.94;4898720;29;20439;-79
2024/01/26 14:51:40;;;;;;;;;;;;;;;6.20;100.00;100709.19;4898720;29;19975;-82
2024/01/26 14:54:06;;;;;;;;;;;;;;;6.15;100.00;100711.84;4898623;29;19927;-82
2024/01/26 14:56:31;;;;;;;;;;;;;;;6.11;100.00;100718.03;4898758;29;19968;-82
2024/01/26 14:58:56;;;;;;;;;;;;;;;6.10;100.00;100721.56;4898059;29;20018;-82
2024/01/26 15:01:21;;;;;;;;;;;;;;;6.10;100.00;100732.09;4896938;29;19967;-83
2024/01/26 15:03:47;;;;;;;;;;;;;;;6.11;100.00;100736.44;4898622;29;19969;-82
2024/01/26 15:06:12;;;;;;;;;;;;;;;6.09;100.00;100748.75;4898351;29;19964;-82
2024/01/26 15:08:38;;;;;;;;;;;;;;;6.11;100.00;100754.88;4898454;29;19923;-82
2024/01/26 15:11:04;;;;;;;;;;;;;;;6.06;100.00;100754.03;4898205;29;19915;-82
2024/01/26 15:13:29;;;;;;;;;;;;;;;6.06;100.00;100764.56;4898559;29;19926;-81
2024/01/26 15:15:54;;;;;;;;;;;;;;;6.07;100.00;100769.81;4896897;29;19930;-81
2024/01/26 15:18:19;;;;;;;;;;;;;;;6.07;100.00;100776.84;4898147;29;19916;-81
2024/01/26 15:20:45;;;;;;;;;;;;;;;6.02;100.00;100784.78;4896338;29;20013;-82
2024/01/26 15:23:10;;;;;;;;;;;;;;;6.08;100.00;100797.00;4897855;29;19955;-82
2024/01/26 15:25:35;;;;;;;;;;;;;;;6.07;100.00;100797.91;4880773;29;19923;-82
2024/01/26 15:28:00;;;;;;;;;;;;;;;6.06;100.00;100806.66;4898223;29;19920;-82
2024/01/26 15:30:26;;;;;;;;;;;;;;;6.03;100.00;100810.22;4896941;29;19971;-83
2024/01/26 15:32:51;;;;;;;;;;;;;;;6.03;100.00;100820.75;4897736;29;20492;-81
2024/01/26 15:35:16;;;;;;;;;;;;;;;6.03;100.00;100826.00;4897724;29;19950;-82
2024/01/26 15:37:41;;;;;;;;;;;;;;;6.00;100.00;100844.44;4897774;29;20477;-82
2024/01/26 15:40:07;;;;;;;;;;;;;;;6.08;100.00;100847.00;4897784;29;19943;-82
2024/01/26 15:42:33;;;;;;;;;;;;;;;6.04;100.00;100856.66;4896247;29;20014;-82
2024/01/26 15:44:59;;;;;;;;;;;;;;;6.03;100.00;100865.47;4897528;29;19993;-81
2024/01/26 15:47:26;;;;;;;;;;;;;;;5.99;100.00;100864.59;4896317;29;19935;-81
2024/01/26 15:49:51;;;;;;;;;;;;;;;5.97;100.00;100876.91;4897915;29;19916;-81
2024/01/26 15:52:16;;;;;;;;;;;;;;;5.98;100.00;100889.19;4897414;29;20294;-83
2024/01/26 15:54:42;;;;;;;;;;;;;;;6.01;100.00;100888.25;4897766;29;20010;-82
2024/01/26 15:57:07;;;;;;;;;;;;;;;6.03;100.00;100909.31;4880439;29;19930;-81
2024/01/26 15:59:32;;;;;;;;;;;;;;;6.00;100.00;100911.09;4880379;29;19920;-83
2024/01/26 16:02:00;;;;;;;;;;;;;;;6.03;100.00;100923.34;4896075;29;20418;-81
2024/01/26 16:04:25;;;;;;;;;;;;;;;6.03;100.00;100915.47;4897184;29;19923;-81
2024/01/26 16:06:51;;;;;;;;;;;;;;;5.99;100.00;100924.25;4897029;29;20264;-81
2024/01/26 16:09:18;;;;;;;;;;;;;;;6.02;100.00;100926.00;4897259;29;19923;-81
2024/01/26 16:11:43;;;;;;;;;;;;;;;5.97;100.00;100932.16;4879549;29;19919;-81
2024/01/26 16:14:09;;;;;;;;;;;;;;;6.03;100.00;100943.50;4880479;29;20014;-81
2024/01/26 16:16:34;;;;;;;;;;;;;;;5.97;100.00;100952.31;4896061;29;19924;-81
2024/01/26 16:18:59;;;;;;;;;;;;;;;5.95;100.00;100957.56;4897306;29;19919;-81
2024/01/26 16:21:24;;;;;;;;;;;;;;;5.95;100.00;100954.03;4879940;29;20030;-81
2024/01/26 16:23:50;;;;;;;;;;;;;;;5.94;100.00;100955.81;4896898;29;20017;-82
2024/01/26 16:26:15;;;;;;;;;;;;;;;6.00;100.00;100966.34;4896990;29;20457;-81
2024/01/26 16:28:41;;;;;;;;;;;;;;;5.96;100.00;100969.84;4897226;29;19936;-81
2024/01/26 16:31:06;;;;;;;;;;;;;;;5.92;100.00;100981.25;4895873;29;19971;-81
2024/01/26 16:33:33;;;;;;;;;;;;;;;5.93;100.00;100988.25;4897241;29;19969;-81
2024/01/26 16:35:58;;;;;;;;;;;;;;;5.89;100.00;100997.06;4896898;29;19923;-83
2024/01/26 16:38:24;;;;;;;;;;;;;;;5.94;100.00;101003.16;4896880;29;19923;-83
2024/01/26 16:40:49;;;;;;;;;;;;;;;5.91;100.00;101008.44;4895018;29;19920;-84
2024/01/26 16:43:14;;;;;;;;;;;;;;;5.91;100.00;101023.34;4897126;29;20422;-86
2024/01/26 16:45:40;;;;;;;;;;;;;;;5.93;100.00;101027.72;4878410;29;20848;-83
2024/01/26 16:48:05;;;;;;;;;;;;;;;5.89;100.00;101036.50;4897071;29;19919;-82
2024/01/26 16:50:31;;;;;;;;;;;;;;;5.89;100.00;101030.34;4895248;29;20293;-82
2024/01/26 16:52:56;;;;;;;;;;;;;;;5.85;100.00;101040.03;4896935;29;20359;-84
2024/01/26 16:55:21;;;;;;;;;;;;;;;5.88;100.00;101050.53;4896717;29;19919;-82
2024/01/26 16:57:47;;;;;;;;;;;;;;;5.83;100.00;101061.06;4895185;29;20013;-82
2024/01/26 17:00:13;;;;;;;;;;;;;;;5.85;100.00;101066.31;4895093;29;19947;-81
2024/01/26 17:02:39;;;;;;;;;;;;;;;5.83;100.00;101068.09;4895218;29;19927;-81
2024/01/26 17:05:05;;;;;;;;;;;;;;;5.81;100.00;101073.34;4896855;29;20037;-84
2024/01/26 17:07:30;;;;;;;;;;;;;;;5.82;100.00;101079.47;4879423;29;19928;-81
2024/01/26 17:09:55;;;;;;;;;;;;;;;5.83;100.00;101070.72;4896796;29;20283;-83
2024/01/26 17:12:22;;;;;;;;;;;;;;;5.80;100.00;101084.75;4895126;29;19927;-80
2024/01/26 17:14:47;;;;;;;;;;;;;;;5.80;100.00;101089.16;4896891;29;20324;-81
2024/01/26 17:17:13;;;;;;;;;;;;;;;5.84;100.00;101090.91;4895459;29;20458;-81
2024/01/26 17:19:40;;;;;;;;;;;;;;;5.82;100.00;101092.63;4896686;29;19926;-82
2024/01/26 17:22:05;;;;;;;;;;;;;;;5.80;100.00;101100.53;4895275;29;20435;-82
2024/01/26 17:24:30;;;;;;;;;;;;;;;5.82;100.00;101111.06;4900096;29;19938;-81
2024/01/26 17:26:55;;;;;;;;;;;;;;;5.81;100.00;101106.69;4900292;29;20286;-81
2024/01/26 17:29:21;;;;;;;;;;;;;;;5.81;100.00;101118.06;4900316;29;20454;-82
2024/01/26 17:31:47;;;;;;;;;;;;;;;5.78;100.00;101117.22;4898997;29;20363;-82
2024/01/26 17:34:14;;;;;;;;;;;;;;;5.72;100.00;101125.97;4900257;29;19923;-82
2024/01/26 17:36:40;;;;;;;;;;;;;;;5.73;100.00;101118.97;4899307;29;19923;-84
2024/01/26 17:39:05;;;;;;;;;;;;;;;5.75;100.00;101125.97;4900136;29;19927;-79
2024/01/26 17:41:30;;;;;;;;;;;;;;;5.73;100.00;101135.63;4900027;29;20396;-82
2024/01/26 17:43:55;;;;;;;;;;;;;;;5.77;100.00;101132.09;4900035;29;20283;-81
2024/01/26 17:46:21;;;;;;;;;;;;;;;5.79;100.00;101130.38;4898400;29;19926;-83
2024/01/26 17:48:46;;;;;;;;;;;;;;;5.80;100.00;101131.22;4899686;29;20283;-81
2024/01/26 17:51:11;;;;;;;;;;;;;;;5.78;100.00;101127.75;4897958;29;20769;-81
2024/01/26 17:53:36;;;;;;;;;;;;;;;5.76;100.00;101143.53;4899312;29;19994;-83
2024/01/26 17:56:05;;;;;;;;;;;;;;;5.78;100.00;101148.78;4897708;29;19954;-81
2024/01/26 17:58:31;;;;;;;;;;;;;;;5.79;100.00;101153.13;4897812;29;19972;-85
2024/01/26 18:00:56;;;;;;;;;;;;;;;5.74;100.00;101155.78;4897978;29;19966;-82
2024/01/26 18:03:21;;;;;;;;;;;;;;;5.76;100.00;101167.19;4899018;29;19923;-82
2024/01/26 18:05:46;;;;;;;;;;;;;;;5.75;100.00;101165.44;4899008;29;19931;-84
2024/01/26 18:08:12;;;;;;;;;;;;;;;5.76;100.00;101168.91;4899307;29;20383;-79
2024/01/26 18:10:37;;;;;;;;;;;;;;;5.75;100.00;101177.72;4898769;29;20339;-81
2024/01/26 18:13:02;;;;;;;;;;;;;;;5.78;100.00;101183.84;4899440;29;19923;-87
2024/01/26 18:15:27;;;;;;;;;;;;;;;5.75;100.00;101185.59;4898860;29;19919;-84
2024/01/26 18:17:53;;;;;;;;;;;;;;;5.78;100.00;101190.88;4898697;29;20287;-83
2024/01/26 18:20:18;;;;;;;;;;;;;;;5.75;100.00;101191.72;4899554;29;19926;-86
2024/01/26 18:22:43;;;;;;;;;;;;;;;5.76;100.00;101189.97;4882253;29;20287;-82
2024/01/26 18:25:11;;;;;;;;;;;;;;;5.78;100.00;101201.38;4899616;29;19974;-82
2024/01/26 18:27:36;;;;;;;;;;;;;;;5.78;100.00;101204.88;4897657;29;19923;-82
2024/01/26 18:30:01;;;;;;;;;;;;;;;5.78;100.00;101201.38;4897792;29;19946;-86
2024/01/26 18:32:27;;;;;;;;;;;;;;;5.77;100.00;101204.88;4896500;29;19964;-86
2024/01/26 18:34:52;;;;;;;;;;;;;;;5.77;100.00;101216.28;4898063;29;19919;-83
2024/01/26 18:37:17;;;;;;;;;;;;;;;5.74;100.00;101221.53;4898940;29;19978;-89
2024/01/26 18:39:43;;;;;;;;;;;;;;;5.77;100.00;101228.56;4881098;29;19920;-83
2024/01/26 18:42:08;;;;;;;;;;;;;;;5.76;100.00;101229.41;4896026;29;19926;-83
2024/01/26 18:44:33;;;;;;;;;;;;;;;5.76;100.00;101239.94;4897355;29;19923;-86
2024/01/26 18:46:59;;;;;;;;;;;;;;;5.73;100.00;101243.47;4897863;29;19946;-84
2024/01/26 18:49:24;;;;;;;;;;;;;;;5.75;100.00;101248.72;4898932;29;19946;-85
2024/01/26 18:51:49;;;;;;;;;;;;;;;5.77;100.00;101246.97;4881766;29;19924;-84
2024/01/26 18:54:14;;;;;;;;;;;;;;;5.75;100.00;101260.13;4898846;29;19975;-85